Time;durP1;ratioP1;P1;durP2;ratioP2;P2;SDS_P1;SDS_P2;PMS_P1;PMS_P2;Temp;Humidity;BMP_temperature;BMP_pressure;BME280_temperature;BME280_humidity;BME280_pressure;Samples;Min_cycle;Max_cycle;Signal;HPM_P1;HPM_P2
2021/09/22 00:01:59;;;;;;;0.90;0.53;;;;;;;;;;5053331;28;20608;-87
2021/09/22 00:04:25;;;;;;;0.37;0.37;;;;;;;;;;5067870;28;20106;-87
2021/09/22 00:06:51;;;;;;;0.40;0.37;;;;;;;;;;5057179;28;20094;-88
2021/09/22 00:09:17;;;;;;;3.03;0.47;;;;;;;;;;5056426;28;20032;-88
2021/09/22 00:11:43;;;;;;;0.30;0.30;;;;;;;;;;5057089;28;20035;-88
2021/09/22 00:14:09;;;;;;;0.20;0.20;;;;;;;;;;5036769;28;20040;-88
2021/09/22 00:16:35;;;;;;;0.20;0.20;;;;;;;;;;5051109;28;20041;-88
2021/09/22 00:19:01;;;;;;;0.10;0.10;;;;;;;;;;5066805;28;20025;-88
2021/09/22 00:21:27;;;;;;;0.40;0.33;;;;;;;;;;5060637;28;20028;-87
2021/09/22 00:23:53;;;;;;;0.15;0.15;;;;;;;;;;5055395;28;20025;-87
2021/09/22 00:26:19;;;;;;;0.63;0.50;;;;;;;;;;5056928;28;20433;-87
2021/09/22 00:28:45;;;;;;;0.57;0.57;;;;;;;;;;5065566;28;20393;-87
2021/09/22 00:31:11;;;;;;;0.90;0.63;;;;;;;;;;5055036;28;20017;-87
2021/09/22 00:33:38;;;;;;;0.40;0.40;;;;;;;;;;5056440;28;20060;-87
2021/09/22 00:36:04;;;;;;;0.13;0.13;;;;;;;;;;5058333;28;20136;-88
2021/09/22 00:38:30;;;;;;;0.40;0.40;;;;;;;;;;5059002;28;20485;-89
2021/09/22 00:40:56;;;;;;;1.10;0.70;;;;;;;;;;5054840;28;20028;-89
2021/09/22 00:46:03;;;;;;;0.20;0.20;;;;;;;;;;5944697;22;20259;-89
2021/09/22 00:48:30;;;;;;;0.57;0.40;;;;;;;;;;5020008;22;20085;-85
2021/09/22 00:50:56;;;;;;;0.38;0.38;;;;;;;;;;5097980;22;20013;-89
2021/09/22 00:53:22;;;;;;;0.43;0.43;;;;;;;;;;4966808;28;20043;-91
2021/09/22 00:55:51;;;;;;;0.20;0.20;;;;;;;;;;4970616;28;20019;-90
2021/09/22 00:58:17;;;;;;;0.40;0.40;;;;;;;;;;4970757;28;20455;-91
2021/09/22 01:00:43;;;;;;;0.10;0.10;;;;;;;;;;4952958;28;20023;-90
2021/09/22 01:03:09;;;;;;;0.23;0.23;;;;;;;;;;4950122;29;20038;-89
2021/09/22 01:05:35;;;;;;;0.40;0.40;;;;;;;;;;4957793;28;20027;-89
2021/09/22 01:08:03;;;;;;;0.20;0.20;;;;;;;;;;4971760;28;20376;-89
2021/09/22 01:10:29;;;;;;;0.38;0.38;;;;;;;;;;4969062;28;20470;-89
2021/09/22 01:12:55;;;;;;;0.33;0.33;;;;;;;;;;4972403;28;20030;-89
2021/09/22 01:15:27;;;;;;;0.10;0.10;;;;;;;;;;4971387;28;20398;-89
2021/09/22 01:17:54;;;;;;;0.60;0.50;;;;;;;;;;4954703;28;20047;-90
2021/09/22 01:20:20;;;;;;;0.30;0.30;;;;;;;;;;4971359;28;20034;-89
2021/09/22 01:22:46;;;;;;;1.17;0.65;;;;;;;;;;4955904;28;20035;-88
2021/09/22 01:25:13;;;;;;;0.27;0.27;;;;;;;;;;4970373;28;20034;-87
2021/09/22 01:27:46;;;;;;;0.10;0.10;;;;;;;;;;4968108;28;20683;-89
2021/09/22 01:30:12;;;;;;;0.30;0.20;;;;;;;;;;4971508;28;20499;-88
2021/09/22 01:32:47;;;;;;;0.30;0.30;;;;;;;;;;4970135;28;20038;-87
2021/09/22 01:35:13;;;;;;;0.20;0.20;;;;;;;;;;4956356;28;20019;-87
2021/09/22 01:37:39;;;;;;;0.10;0.10;;;;;;;;;;4955146;28;20050;-88
2021/09/22 01:40:05;;;;;;;0.30;0.30;;;;;;;;;;4969779;28;20022;-88
2021/09/22 01:42:31;;;;;;;0.40;0.17;;;;;;;;;;4980170;28;20026;-89
2021/09/22 01:44:57;;;;;;;0.37;0.37;;;;;;;;;;4970119;28;20094;-88
2021/09/22 01:47:23;;;;;;;0.20;0.20;;;;;;;;;;4969526;28;20066;-87
2021/09/22 01:49:49;;;;;;;0.70;0.65;;;;;;;;;;4969465;28;20146;-87
2021/09/22 01:52:15;;;;;;;0.40;0.40;;;;;;;;;;4968172;28;20133;-88
2021/09/22 01:54:41;;;;;;;2.37;0.60;;;;;;;;;;4971407;28;20109;-88
2021/09/22 01:57:09;;;;;;;0.28;0.28;;;;;;;;;;4968934;28;20078;-88
2021/09/22 01:59:35;;;;;;;0.35;0.32;;;;;;;;;;4971015;28;20037;-89
2021/09/22 02:02:01;;;;;;;0.22;0.22;;;;;;;;;;4972514;28;20644;-88
2021/09/22 02:04:27;;;;;;;0.40;0.40;;;;;;;;;;4969399;28;20035;-88
2021/09/22 02:06:53;;;;;;;0.90;0.90;;;;;;;;;;4957104;28;20034;-88
2021/09/22 02:09:19;;;;;;;0.27;0.27;;;;;;;;;;4971127;28;20118;-89
2021/09/22 02:11:45;;;;;;;0.27;0.27;;;;;;;;;;4968999;28;20122;-87
2021/09/22 02:14:11;;;;;;;0.67;0.63;;;;;;;;;;4970084;28;20033;-88
2021/09/22 02:16:38;;;;;;;0.10;0.10;;;;;;;;;;4967981;28;20042;-88
2021/09/22 02:19:04;;;;;;;5.93;0.85;;;;;;;;;;4968969;28;20509;-88
2021/09/22 02:21:30;;;;;;;0.27;0.27;;;;;;;;;;4969453;28;20034;-88
2021/09/22 02:23:56;;;;;;;0.30;0.30;;;;;;;;;;4967412;28;20670;-87
2021/09/22 02:26:22;;;;;;;0.37;0.37;;;;;;;;;;4953392;28;20121;-86
2021/09/22 02:28:48;;;;;;;2.78;0.63;;;;;;;;;;4970260;28;20030;-86
2021/09/22 02:31:14;;;;;;;0.20;0.20;;;;;;;;;;4950369;28;20034;-88
2021/09/22 02:33:40;;;;;;;0.73;0.73;;;;;;;;;;4968222;28;20031;-87
2021/09/22 02:36:06;;;;;;;0.17;0.17;;;;;;;;;;4967763;28;20042;-87
2021/09/22 02:38:32;;;;;;;1.40;0.47;;;;;;;;;;4969108;28;20037;-86
2021/09/22 02:40:58;;;;;;;0.13;0.13;;;;;;;;;;4968369;28;20157;-87
2021/09/22 02:43:25;;;;;;;0.37;0.37;;;;;;;;;;4968924;28;20070;-88
2021/09/22 02:45:51;;;;;;;0.35;0.35;;;;;;;;;;4952261;28;20035;-89
2021/09/22 02:48:17;;;;;;;0.10;0.10;;;;;;;;;;4968873;28;20098;-88
2021/09/22 02:50:43;;;;;;;0.17;0.17;;;;;;;;;;4970314;28;20768;-89
2021/09/22 02:53:09;;;;;;;3.30;1.40;;;;;;;;;;4953326;28;20305;-88
2021/09/22 02:55:35;;;;;;;0.30;0.30;;;;;;;;;;4967297;28;20031;-88
2021/09/22 02:58:01;;;;;;;0.10;0.10;;;;;;;;;;4969248;28;20030;-89
2021/09/22 03:00:27;;;;;;;6.10;1.97;;;;;;;;;;4969389;28;20513;-86
2021/09/22 03:02:53;;;;;;;0.65;0.65;;;;;;;;;;4967703;28;20759;-87
2021/09/22 03:05:19;;;;;;;0.22;0.22;;;;;;;;;;4969046;28;20045;-88
2021/09/22 03:07:45;;;;;;;0.20;0.20;;;;;;;;;;4968229;28;20064;-87
2021/09/22 03:10:11;;;;;;;0.30;0.30;;;;;;;;;;4967938;28;20026;-87
2021/09/22 03:12:37;;;;;;;0.60;0.60;;;;;;;;;;4950845;28;20398;-87
2021/09/22 03:15:04;;;;;;;0.10;0.10;;;;;;;;;;4968589;28;20274;-88
2021/09/22 03:17:30;;;;;;;1.02;0.55;;;;;;;;;;4967755;28;20039;-87
2021/09/22 03:19:56;;;;;;;0.53;0.53;;;;;;;;;;4969903;28;20090;-88
2021/09/22 03:22:22;;;;;;;0.22;0.22;;;;;;;;;;4969107;28;20038;-88
2021/09/22 03:24:48;;;;;;;0.10;0.10;;;;;;;;;;4974435;28;20023;-88
2021/09/22 03:27:14;;;;;;;0.10;0.10;;;;;;;;;;4969342;28;20042;-88
2021/09/22 03:29:40;;;;;;;0.73;0.68;;;;;;;;;;4975099;28;20064;-87
2021/09/22 03:32:06;;;;;;;0.30;0.30;;;;;;;;;;4958366;28;20042;-88
2021/09/22 03:34:32;;;;;;;0.10;0.10;;;;;;;;;;4973000;28;20491;-89
2021/09/22 03:36:58;;;;;;;0.63;0.63;;;;;;;;;;4954436;28;20294;-88
2021/09/22 03:39:24;;;;;;;0.20;0.20;;;;;;;;;;4981972;28;20031;-87
2021/09/22 03:41:50;;;;;;;1.83;0.47;;;;;;;;;;4954883;28;20064;-88
2021/09/22 03:44:16;;;;;;;0.70;0.70;;;;;;;;;;4955683;28;20035;-88
2021/09/22 03:46:42;;;;;;;0.30;0.30;;;;;;;;;;4972477;28;20480;-88
2021/09/22 03:49:08;;;;;;;0.23;0.23;;;;;;;;;;4976966;28;20606;-88
2021/09/22 03:51:34;;;;;;;0.10;0.10;;;;;;;;;;4971014;28;20058;-87
2021/09/22 03:54:00;;;;;;;0.35;0.35;;;;;;;;;;4972101;28;20078;-88
2021/09/22 03:56:26;;;;;;;0.33;0.33;;;;;;;;;;4970556;28;20447;-87
2021/09/22 03:58:52;;;;;;;0.15;0.15;;;;;;;;;;4972451;28;20093;-86
2021/09/22 04:01:18;;;;;;;0.20;0.20;;;;;;;;;;4972988;28;20034;-89
2021/09/22 04:03:45;;;;;;;1.58;0.65;;;;;;;;;;4976493;28;20031;-88
2021/09/22 04:06:11;;;;;;;0.20;0.20;;;;;;;;;;4971982;28;20106;-89
2021/09/22 04:08:37;;;;;;;0.13;0.13;;;;;;;;;;4962653;28;20130;-90
2021/09/22 04:11:03;;;;;;;4.93;1.13;;;;;;;;;;4976435;28;20450;-88
2021/09/22 04:13:29;;;;;;;0.73;0.73;;;;;;;;;;4972712;28;20034;-88
2021/09/22 04:15:55;;;;;;;0.57;0.20;;;;;;;;;;4973173;28;20030;-89
2021/09/22 04:18:21;;;;;;;0.20;0.20;;;;;;;;;;4973494;28;20061;-87
2021/09/22 04:20:47;;;;;;;0.63;0.50;;;;;;;;;;4971118;28;20047;-89
2021/09/22 04:23:13;;;;;;;0.30;0.30;;;;;;;;;;4970036;28;20034;-87
2021/09/22 04:25:39;;;;;;;0.30;0.30;;;;;;;;;;4971650;28;20074;-87
2021/09/22 04:28:06;;;;;;;0.13;0.13;;;;;;;;;;4972160;28;20129;-87
2021/09/22 04:30:32;;;;;;;;;;;;;;;;;;4957644;28;20030;-87
2021/09/22 04:32:58;;;;;;;0.30;0.30;;;;;;;;;;4970524;28;19925;-87
2021/09/22 04:35:24;;;;;;;0.30;0.30;;;;;;;;;;4957983;28;20448;-87
2021/09/22 04:37:52;;;;;;;0.45;0.45;;;;;;;;;;4970604;28;20137;-87
2021/09/22 04:40:18;;;;;;;0.10;0.10;;;;;;;;;;4970367;28;20038;-86
2021/09/22 04:42:44;;;;;;;0.23;0.23;;;;;;;;;;4966184;28;20495;-87
2021/09/22 04:45:10;;;;;;;0.57;0.57;;;;;;;;;;4971733;28;20033;-87
2021/09/22 04:47:37;;;;;;;0.10;0.10;;;;;;;;;;4977167;28;20506;-88
2021/09/22 04:50:03;;;;;;;;;;;;;;;;;;4979310;28;20031;-87
2021/09/22 04:52:29;;;;;;;0.20;0.20;;;;;;;;;;4972138;28;20683;-88
2021/09/22 04:54:55;;;;;;;0.88;0.60;;;;;;;;;;4969728;28;20037;-87
2021/09/22 04:57:21;;;;;;;0.57;0.55;;;;;;;;;;4968115;28;20042;-88
2021/09/22 04:59:47;;;;;;;0.27;0.27;;;;;;;;;;4947326;28;20058;-88
2021/09/22 05:02:13;;;;;;;1.00;0.98;;;;;;;;;;4965523;28;20039;-88
2021/09/22 05:04:40;;;;;;;0.10;0.10;;;;;;;;;;4962697;28;20102;-89
2021/09/22 05:07:06;;;;;;;1.13;0.70;;;;;;;;;;4964995;28;20031;-89
2021/09/22 05:09:32;;;;;;;0.10;0.10;;;;;;;;;;4967273;28;20027;-88
2021/09/22 05:12:00;;;;;;;0.55;0.55;;;;;;;;;;4959133;28;20039;-87
2021/09/22 05:14:26;;;;;;;0.75;0.75;;;;;;;;;;4965168;28;20035;-87
2021/09/22 05:16:52;;;;;;;0.10;0.10;;;;;;;;;;4966221;28;20125;-87
2021/09/22 05:19:21;;;;;;;0.20;0.20;;;;;;;;;;4949380;28;20048;-87
2021/09/22 05:21:48;;;;;;;0.20;0.20;;;;;;;;;;4960491;28;20027;-87
2021/09/22 05:24:14;;;;;;;0.10;0.10;;;;;;;;;;4964191;28;20026;-86
2021/09/22 05:26:40;;;;;;;0.47;0.47;;;;;;;;;;4962982;28;20471;-79
2021/09/22 05:29:06;;;;;;;0.30;0.30;;;;;;;;;;4961948;28;20030;-78
2021/09/22 05:31:32;;;;;;;0.20;0.20;;;;;;;;;;4964390;28;20082;-78
2021/09/22 05:33:58;;;;;;;0.20;0.20;;;;;;;;;;4963146;28;20045;-79
2021/09/22 05:36:24;;;;;;;1.13;0.53;;;;;;;;;;4960778;28;20581;-78
2021/09/22 05:38:50;;;;;;;0.20;0.20;;;;;;;;;;4959241;28;20046;-79
2021/09/22 05:41:16;;;;;;;0.45;0.45;;;;;;;;;;4958064;28;20028;-78
2021/09/22 05:43:42;;;;;;;0.20;0.20;;;;;;;;;;4964828;28;20053;-78
2021/09/22 05:46:08;;;;;;;1.90;1.20;;;;;;;;;;4962088;28;20038;-77
2021/09/22 05:48:35;;;;;;;0.17;0.17;;;;;;;;;;4962210;28;20068;-77
2021/09/22 05:51:01;;;;;;;0.57;0.57;;;;;;;;;;4943558;28;20034;-79
2021/09/22 05:53:27;;;;;;;0.20;0.20;;;;;;;;;;4964200;28;20035;-80
2021/09/22 05:55:53;;;;;;;0.63;0.63;;;;;;;;;;4964049;28;20069;-79
2021/09/22 05:58:20;;;;;;;0.50;0.32;;;;;;;;;;4962626;28;20039;-78
2021/09/22 06:00:47;;;;;;;0.15;0.15;;;;;;;;;;4963584;28;20046;-79
2021/09/22 06:03:13;;;;;;;0.30;0.30;;;;;;;;;;4963471;28;20033;-79
2021/09/22 06:05:39;;;;;;;2.25;0.63;;;;;;;;;;4964186;28;20045;-87
2021/09/22 06:08:09;;;;;;;0.27;0.27;;;;;;;;;;4965914;28;20037;-87
2021/09/22 06:10:35;;;;;;;0.20;0.20;;;;;;;;;;4964410;28;20030;-88
2021/09/22 06:13:02;;;;;;;0.60;0.60;;;;;;;;;;4964433;28;20039;-87
2021/09/22 06:15:28;;;;;;;0.55;0.55;;;;;;;;;;4964112;28;20031;-87
2021/09/22 06:17:54;;;;;;;0.10;0.10;;;;;;;;;;4964055;28;20042;-87
2021/09/22 06:20:20;;;;;;;0.30;0.23;;;;;;;;;;4948051;28;20304;-87
2021/09/22 06:22:46;;;;;;;0.10;0.10;;;;;;;;;;4945951;28;20039;-88
2021/09/22 06:25:14;;;;;;;0.20;0.20;;;;;;;;;;4964037;28;20293;-87
2021/09/22 06:27:40;;;;;;;0.30;0.30;;;;;;;;;;4962926;28;20039;-88
2021/09/22 06:30:06;;;;;;;0.47;0.47;;;;;;;;;;4963943;28;20517;-89
2021/09/22 06:32:32;;;;;;;0.05;0.05;;;;;;;;;;4964625;28;20149;-86
2021/09/22 06:34:58;;;;;;;0.40;0.40;;;;;;;;;;4966420;28;20026;-89
2021/09/22 06:37:24;;;;;;;0.10;0.10;;;;;;;;;;4949094;28;20880;-88
2021/09/22 06:39:50;;;;;;;0.15;0.15;;;;;;;;;;4962041;28;20030;-84
2021/09/22 06:42:16;;;;;;;0.35;0.30;;;;;;;;;;4963952;28;20035;-87
2021/09/22 06:44:42;;;;;;;0.50;0.50;;;;;;;;;;4966084;28;20110;-90
2021/09/22 06:47:08;;;;;;;0.47;0.37;;;;;;;;;;4977457;28;20320;-89
2021/09/22 06:49:34;;;;;;;0.52;0.52;;;;;;;;;;4963959;28;20098;-87
2021/09/22 06:52:01;;;;;;;0.15;0.15;;;;;;;;;;4963645;28;20142;-88
2021/09/22 06:54:27;;;;;;;3.45;1.02;;;;;;;;;;4946044;28;20018;-87
2021/09/22 06:56:53;;;;;;;0.70;0.70;;;;;;;;;;4964663;28;20050;-89
2021/09/22 06:59:19;;;;;;;4.60;0.15;;;;;;;;;;4965139;28;20027;-86
2021/09/22 07:01:45;;;;;;;0.10;0.10;;;;;;;;;;4962837;28;20035;-87
2021/09/22 07:04:11;;;;;;;0.55;0.40;;;;;;;;;;4961750;28;20034;-86
2021/09/22 07:06:37;;;;;;;0.10;0.10;;;;;;;;;;4963118;28;20035;-85
2021/09/22 07:09:03;;;;;;;0.30;0.30;;;;;;;;;;4963296;28;20134;-85
2021/09/22 07:11:30;;;;;;;0.00;0.00;;;;;;;;;;4963238;28;20447;-85
2021/09/22 07:13:56;;;;;;;0.13;0.13;;;;;;;;;;4964277;28;20035;-85
2021/09/22 07:16:22;;;;;;;0.30;0.30;;;;;;;;;;4962867;28;20407;-85
2021/09/22 07:18:48;;;;;;;0.30;0.30;;;;;;;;;;4962934;28;20041;-86
2021/09/22 07:21:15;;;;;;;0.15;0.15;;;;;;;;;;4962675;28;20030;-88
2021/09/22 07:23:41;;;;;;;0.00;0.00;;;;;;;;;;4962834;28;20165;-88
2021/09/22 07:26:07;;;;;;;0.43;0.43;;;;;;;;;;4964827;28;20027;-88
2021/09/22 07:28:34;;;;;;;0.25;0.10;;;;;;;;;;4963444;28;20027;-88
2021/09/22 07:31:01;;;;;;;0.15;0.15;;;;;;;;;;4944713;28;20150;-88
2021/09/22 07:33:27;;;;;;;;;;;;;;;;;;4963985;28;20557;-88
2021/09/22 07:35:53;;;;;;;0.85;0.57;;;;;;;;;;4961808;28;19923;-88
2021/09/22 07:38:19;;;;;;;0.35;0.30;;;;;;;;;;4965803;28;20097;-88
2021/09/22 07:40:45;;;;;;;0.65;0.30;;;;;;;;;;4947349;28;20049;-88
2021/09/22 07:43:11;;;;;;;18.17;0.63;;;;;;;;;;4965044;28;20045;-90
2021/09/22 07:45:38;;;;;;;0.20;0.20;;;;;;;;;;4964798;28;20116;-90
2021/09/22 07:48:04;;;;;;;1.10;0.52;;;;;;;;;;4964819;28;20030;-90
2021/09/22 07:50:30;;;;;;;0.55;0.35;;;;;;;;;;4964253;28;20118;-89
2021/09/22 07:52:56;;;;;;;0.20;0.15;;;;;;;;;;4965963;28;20889;-89
2021/09/22 07:55:23;;;;;;;0.10;0.10;;;;;;;;;;4967558;28;20093;-92
2021/09/22 07:57:53;;;;;;;0.15;0.15;;;;;;;;;;4964651;28;20534;-91
2021/09/22 08:00:19;;;;;;;1.10;0.25;;;;;;;;;;4964921;28;20030;-87
2021/09/22 08:02:45;;;;;;;;;;;;;;;;;;4963858;28;20034;-88
2021/09/22 08:05:11;;;;;;;1.15;0.30;;;;;;;;;;4965280;28;19917;-88
2021/09/22 08:07:37;;;;;;;0.93;0.80;;;;;;;;;;4966807;28;20035;-88
2021/09/22 08:10:04;;;;;;;0.17;0.17;;;;;;;;;;4968878;28;20113;-89
2021/09/22 08:12:30;;;;;;;0.30;0.20;;;;;;;;;;4966488;28;20042;-89
2021/09/22 08:14:56;;;;;;;0.13;0.13;;;;;;;;;;4963061;28;20038;-89
2021/09/22 08:17:23;;;;;;;0.38;0.38;;;;;;;;;;4968208;28;20046;-89
2021/09/22 08:19:49;;;;;;;0.03;0.03;;;;;;;;;;4966809;28;20430;-90
2021/09/22 08:22:15;;;;;;;0.13;0.13;;;;;;;;;;4972407;28;20095;-87
2021/09/22 08:24:41;;;;;;;0.38;0.38;;;;;;;;;;4975722;28;20030;-89
2021/09/22 08:27:07;;;;;;;0.47;0.47;;;;;;;;;;4969120;28;20181;-87
2021/09/22 08:29:34;;;;;;;0.25;0.25;;;;;;;;;;4966780;28;20023;-88
2021/09/22 08:32:00;;;;;;;;;;;;;;;;;;4971215;28;20043;-88
2021/09/22 08:34:26;;;;;;;1.27;0.85;;;;;;;;;;4950172;28;20409;-85
2021/09/22 08:36:52;;;;;;;0.00;0.00;;;;;;;;;;4965626;28;20074;-85
2021/09/22 08:39:18;;;;;;;0.00;0.00;;;;;;;;;;4948373;28;20035;-85
2021/09/22 08:41:44;;;;;;;0.43;0.30;;;;;;;;;;4966002;28;20117;-85
2021/09/22 08:44:11;;;;;;;0.32;0.20;;;;;;;;;;4967931;28;20415;-84
2021/09/22 08:46:40;;;;;;;0.15;0.15;;;;;;;;;;4965592;28;20035;-85
2021/09/22 08:49:06;;;;;;;0.00;0.00;;;;;;;;;;4965518;28;20046;-86
2021/09/22 08:51:32;;;;;;;0.40;0.40;;;;;;;;;;4965061;28;20504;-85
2021/09/22 08:53:58;;;;;;;0.43;0.40;;;;;;;;;;4946348;28;20130;-85
2021/09/22 08:56:24;;;;;;;0.10;0.10;;;;;;;;;;4966815;28;20030;-84
2021/09/22 08:58:51;;;;;;;0.20;0.20;;;;;;;;;;4965859;28;20046;-84
2021/09/22 09:01:20;;;;;;;0.00;0.00;;;;;;;;;;4965454;28;20131;-85
2021/09/22 09:03:46;;;;;;;2.10;0.60;;;;;;;;;;4965017;28;20035;-84
2021/09/22 09:06:15;;;;;;;0.13;0.13;;;;;;;;;;4965373;28;20038;-84
2021/09/22 09:08:41;;;;;;;0.25;0.25;;;;;;;;;;4965150;28;20139;-85
2021/09/22 09:11:07;;;;;;;0.00;0.00;;;;;;;;;;4967103;28;20082;-84
2021/09/22 09:13:45;;;;;;;0.17;0.17;;;;;;;;;;4965585;28;20096;-86
2021/09/22 09:16:17;;;;;;;0.00;0.00;;;;;;;;;;4964880;28;20035;-85
2021/09/22 09:18:54;;;;;;;0.90;0.65;;;;;;;;;;4965211;28;20479;-85
2021/09/22 09:21:21;;;;;;;0.30;0.30;;;;;;;;;;4965201;28;20025;-85
2021/09/22 09:23:49;;;;;;;0.10;0.10;;;;;;;;;;4950005;28;20122;-85
2021/09/22 09:26:17;;;;;;;0.35;0.35;;;;;;;;;;4962955;28;20077;-84
2021/09/22 09:28:48;;;;;;;0.20;0.20;;;;;;;;;;4964378;28;20848;-85
2021/09/22 09:31:14;;;;;;;0.45;0.45;;;;;;;;;;4964323;28;20085;-85
2021/09/22 09:33:44;;;;;;;0.20;0.20;;;;;;;;;;4965027;28;20137;-85
2021/09/22 09:36:30;;;;;;;0.08;0.08;;;;;;;;;;4964926;28;20058;-86
2021/09/22 09:39:04;;;;;;;0.22;0.20;;;;;;;;;;4950364;28;20043;-85
2021/09/22 09:41:33;;;;;;;0.28;0.28;;;;;;;;;;4965033;28;20101;-85
2021/09/22 09:44:01;;;;;;;0.20;0.20;;;;;;;;;;4951038;28;20034;-85
2021/09/22 09:46:28;;;;;;;0.10;0.10;;;;;;;;;;4963995;28;20126;-84
2021/09/22 09:49:20;;;;;;;0.10;0.10;;;;;;;;;;4964334;28;20027;-85
2021/09/22 09:51:46;;;;;;;1.08;0.32;;;;;;;;;;4960513;28;20058;-85
2021/09/22 09:54:26;;;;;;;0.35;0.10;;;;;;;;;;4964434;28;20037;-84
2021/09/22 09:56:53;;;;;;;0.00;0.00;;;;;;;;;;4959424;28;20149;-86
2021/09/22 09:59:20;;;;;;;0.10;0.10;;;;;;;;;;4966055;28;20027;-85
2021/09/22 10:01:51;;;;;;;0.10;0.10;;;;;;;;;;4963754;28;20046;-85
2021/09/22 10:04:18;;;;;;;0.20;0.20;;;;;;;;;;4946289;28;20031;-85
2021/09/22 10:06:44;;;;;;;0.00;0.00;;;;;;;;;;4964001;28;20034;-84
2021/09/22 10:09:11;;;;;;;0.38;0.38;;;;;;;;;;4964422;28;20061;-85
2021/09/22 10:11:37;;;;;;;0.50;0.40;;;;;;;;;;4964295;28;20023;-85
2021/09/22 10:14:05;;;;;;;0.32;0.22;;;;;;;;;;4966337;28;20061;-85
2021/09/22 10:16:33;;;;;;;0.75;0.52;;;;;;;;;;4963491;28;20038;-85
2021/09/22 10:18:59;;;;;;;0.40;0.40;;;;;;;;;;4963791;28;20038;-85
2021/09/22 10:21:25;;;;;;;0.40;0.40;;;;;;;;;;4963965;28;20027;-85
2021/09/22 10:23:52;;;;;;;0.47;0.47;;;;;;;;;;4963887;28;20039;-85
2021/09/22 10:26:18;;;;;;;0.10;0.10;;;;;;;;;;4965839;28;20026;-85
2021/09/22 10:28:45;;;;;;;0.00;0.00;;;;;;;;;;4964019;28;20062;-86
2021/09/22 10:31:17;;;;;;;0.10;0.10;;;;;;;;;;4963378;28;20399;-85
2021/09/22 10:33:44;;;;;;;0.10;0.10;;;;;;;;;;4963353;28;20837;-86
2021/09/22 10:36:10;;;;;;;0.00;0.00;;;;;;;;;;4963313;28;20590;-85
2021/09/22 10:38:39;;;;;;;0.10;0.10;;;;;;;;;;4963583;28;20138;-85
2021/09/22 10:41:05;;;;;;;0.20;0.10;;;;;;;;;;4964616;28;20034;-85
2021/09/22 10:43:37;;;;;;;0.17;0.10;;;;;;;;;;4962869;28;20050;-85
2021/09/22 10:46:06;;;;;;;0.20;0.20;;;;;;;;;;4963167;28;20798;-86
2021/09/22 10:48:33;;;;;;;0.43;0.13;;;;;;;;;;4963064;28;20502;-84
2021/09/22 10:51:04;;;;;;;0.17;0.17;;;;;;;;;;4963090;28;20048;-85
2021/09/22 10:53:33;;;;;;;0.00;0.00;;;;;;;;;;4964005;28;20125;-85
2021/09/22 10:56:16;;;;;;;0.25;0.17;;;;;;;;;;4964802;28;20096;-84
2021/09/22 10:58:50;;;;;;;0.00;0.00;;;;;;;;;;4962557;28;20070;-85
2021/09/22 11:01:35;;;;;;;0.63;0.22;;;;;;;;;;4962944;28;20608;-85
2021/09/22 11:04:05;;;;;;;0.63;0.40;;;;;;;;;;4962881;28;20038;-85
2021/09/22 11:06:43;;;;;;;0.82;0.22;;;;;;;;;;4945350;28;20026;-85
2021/09/22 11:09:10;;;;;;;0.28;0.20;;;;;;;;;;4962907;28;20030;-85
2021/09/22 11:14:41;;;;;;;0.57;0.40;;;;;;;;;;4960923;28;20117;-85
2021/09/22 11:17:07;;;;;;;;;;;;;;;;;;4965135;28;20053;-86
2021/09/22 11:19:33;;;;;;;0.05;0.05;;;;;;;;;;4945502;28;19913;-84
2021/09/22 11:22:00;;;;;;;0.35;0.30;;;;;;;;;;4962819;28;20038;-86
2021/09/22 11:24:30;;;;;;;2.97;0.73;;;;;;;;;;4945001;28;20676;-85
2021/09/22 11:26:56;;;;;;;0.38;0.35;;;;;;;;;;4962638;28;20766;-85
2021/09/22 11:29:34;;;;;;;0.20;0.20;;;;;;;;;;4964449;28;20065;-85
2021/09/22 11:32:02;;;;;;;0.20;0.20;;;;;;;;;;4962810;28;20058;-85
2021/09/22 11:34:28;;;;;;;0.57;0.17;;;;;;;;;;4962928;28;20499;-85
2021/09/22 11:37:10;;;;;;;0.30;0.17;;;;;;;;;;4962595;28;20047;-85
2021/09/22 11:39:37;;;;;;;0.47;0.32;;;;;;;;;;4963299;28;20045;-86
2021/09/22 11:42:03;;;;;;;0.10;0.10;;;;;;;;;;4962760;28;20056;-85
2021/09/22 11:44:29;;;;;;;0.35;0.35;;;;;;;;;;4963856;28;20035;-86
2021/09/22 11:46:58;;;;;;;0.13;0.13;;;;;;;;;;4964344;28;20370;-85
2021/09/22 11:49:31;;;;;;;0.10;0.10;;;;;;;;;;4962757;28;20030;-86
2021/09/22 11:52:08;;;;;;;0.30;0.30;;;;;;;;;;4964954;28;20534;-86
2021/09/22 11:54:34;;;;;;;0.70;0.65;;;;;;;;;;4966461;28;20030;-85
2021/09/22 11:57:14;;;;;;;0.13;0.13;;;;;;;;;;4966098;28;20043;-85
2021/09/22 11:59:42;;;;;;;0.10;0.10;;;;;;;;;;4966324;28;20110;-85
2021/09/22 12:02:08;;;;;;;0.20;0.20;;;;;;;;;;4968260;28;20133;-85
2021/09/22 12:04:41;;;;;;;0.00;0.00;;;;;;;;;;4966180;28;20042;-85
2021/09/22 12:07:08;;;;;;;0.15;0.15;;;;;;;;;;4966238;28;20058;-85
2021/09/22 12:09:39;;;;;;;0.30;0.30;;;;;;;;;;4966344;28;20031;-86
2021/09/22 12:12:16;;;;;;;0.20;0.20;;;;;;;;;;4965782;28;20031;-85
2021/09/22 12:14:50;;;;;;;0.17;0.17;;;;;;;;;;4966109;28;20031;-85
2021/09/22 12:17:17;;;;;;;0.20;0.20;;;;;;;;;;4963590;28;20519;-85
2021/09/22 12:19:43;;;;;;;0.38;0.22;;;;;;;;;;4965672;28;20027;-85
2021/09/22 12:22:10;;;;;;;0.00;0.00;;;;;;;;;;4965823;28;20411;-86
2021/09/22 12:24:38;;;;;;;0.10;0.10;;;;;;;;;;4965937;28;20081;-86
2021/09/22 12:27:10;;;;;;;2.60;0.85;;;;;;;;;;4965963;28;20108;-86
2021/09/22 12:29:36;;;;;;;0.10;0.10;;;;;;;;;;4948560;28;20038;-85
2021/09/22 12:32:06;;;;;;;0.30;0.30;;;;;;;;;;4968210;28;20031;-86
2021/09/22 12:34:40;;;;;;;0.05;0.05;;;;;;;;;;4965650;28;20070;-85
2021/09/22 12:37:14;;;;;;;0.10;0.10;;;;;;;;;;4965727;28;20419;-85
2021/09/22 12:39:50;;;;;;;0.22;0.20;;;;;;;;;;4965748;28;20059;-86
2021/09/22 12:42:16;;;;;;;0.00;0.00;;;;;;;;;;4946669;28;20031;-85
2021/09/22 12:45:03;;;;;;;0.00;0.00;;;;;;;;;;4965662;28;20402;-85
2021/09/22 12:47:30;;;;;;;0.73;0.38;;;;;;;;;;4964051;28;20097;-85
2021/09/22 12:50:22;;;;;;;0.05;0.05;;;;;;;;;;4967664;28;20026;-85
2021/09/22 12:52:49;;;;;;;0.05;0.05;;;;;;;;;;4962585;28;20046;-85
2021/09/22 12:55:15;;;;;;;0.22;0.20;;;;;;;;;;4965090;28;20043;-86
2021/09/22 12:57:43;;;;;;;0.22;0.22;;;;;;;;;;4965333;28;20093;-85
2021/09/22 13:00:29;;;;;;;0.30;0.13;;;;;;;;;;4947441;28;20051;-86
2021/09/22 13:03:12;;;;;;;0.13;0.10;;;;;;;;;;4949939;28;20038;-86
2021/09/22 13:05:39;;;;;;;0.47;0.25;;;;;;;;;;4965579;28;20037;-86
2021/09/22 13:08:08;;;;;;;0.00;0.00;;;;;;;;;;4967159;28;20464;-85
2021/09/22 13:10:53;;;;;;;0.10;0.10;;;;;;;;;;4963220;28;20034;-85
2021/09/22 13:13:20;;;;;;;3.05;1.15;;;;;;;;;;4965416;28;20578;-86
2021/09/22 13:15:46;;;;;;;0.25;0.20;;;;;;;;;;4964895;28;20585;-86
2021/09/22 13:18:12;;;;;;;0.20;0.20;;;;;;;;;;4964843;28;20046;-86
2021/09/22 13:20:38;;;;;;;0.10;0.10;;;;;;;;;;4964890;28;20031;-85
2021/09/22 13:23:04;;;;;;;0.00;0.00;;;;;;;;;;4966671;28;20633;-85
2021/09/22 13:25:30;;;;;;;0.10;0.10;;;;;;;;;;4964767;28;20039;-85
2021/09/22 13:27:56;;;;;;;0.20;0.20;;;;;;;;;;4947028;28;20942;-86
2021/09/22 13:30:22;;;;;;;0.20;0.20;;;;;;;;;;4964669;28;20038;-85
2021/09/22 13:32:51;;;;;;;0.20;0.20;;;;;;;;;;4948935;28;20038;-86
2021/09/22 13:35:18;;;;;;;0.17;0.13;;;;;;;;;;4962744;28;20045;-86
2021/09/22 13:37:44;;;;;;;0.05;0.05;;;;;;;;;;4963892;28;20053;-85
2021/09/22 13:40:10;;;;;;;0.00;0.00;;;;;;;;;;4964977;28;20114;-85
2021/09/22 13:42:36;;;;;;;0.25;0.25;;;;;;;;;;4963904;28;20034;-86
2021/09/22 13:45:02;;;;;;;0.20;0.20;;;;;;;;;;4964664;28;20419;-85
2021/09/22 13:47:28;;;;;;;0.43;0.28;;;;;;;;;;4947984;28;20026;-85
2021/09/22 13:49:54;;;;;;;0.55;0.20;;;;;;;;;;4965397;28;20487;-85
2021/09/22 13:52:20;;;;;;;0.00;0.00;;;;;;;;;;4963746;28;20050;-85
2021/09/22 13:54:46;;;;;;;0.38;0.38;;;;;;;;;;4946986;28;20046;-85
2021/09/22 13:57:12;;;;;;;0.00;0.00;;;;;;;;;;4964138;28;20042;-86
2021/09/22 13:59:40;;;;;;;0.00;0.00;;;;;;;;;;4964730;28;20026;-86
2021/09/22 14:02:07;;;;;;;0.22;0.10;;;;;;;;;;4966126;28;20046;-85
2021/09/22 14:04:33;;;;;;;0.22;0.22;;;;;;;;;;4946925;28;20092;-86
2021/09/22 14:06:59;;;;;;;0.10;0.10;;;;;;;;;;4963931;28;20382;-85
2021/09/22 14:09:27;;;;;;;0.10;0.10;;;;;;;;;;4963998;28;20035;-85
2021/09/22 14:11:53;;;;;;;0.10;0.10;;;;;;;;;;4964397;28;20418;-85
2021/09/22 14:14:19;;;;;;;1.08;0.17;;;;;;;;;;4966212;28;20039;-85
2021/09/22 14:16:45;;;;;;;0.10;0.10;;;;;;;;;;4964090;28;20121;-85
2021/09/22 14:19:11;;;;;;;0.10;0.10;;;;;;;;;;4946633;28;20038;-86
2021/09/22 14:21:42;;;;;;;0.38;0.20;;;;;;;;;;4963422;28;20742;-86
2021/09/22 14:24:08;;;;;;;0.00;0.00;;;;;;;;;;4964047;28;20035;-85
2021/09/22 14:26:34;;;;;;;1.52;0.10;;;;;;;;;;4964187;28;20023;-86
2021/09/22 14:29:00;;;;;;;0.75;0.75;;;;;;;;;;4962421;28;20039;-85
2021/09/22 14:31:29;;;;;;;0.15;0.00;;;;;;;;;;4963713;28;20039;-86
2021/09/22 14:33:55;;;;;;;0.20;0.20;;;;;;;;;;4963896;28;20043;-85
2021/09/22 14:36:21;;;;;;;0.10;0.10;;;;;;;;;;4963550;28;20029;-86
2021/09/22 14:38:47;;;;;;;0.10;0.10;;;;;;;;;;4963800;28;20083;-85
2021/09/22 14:41:13;;;;;;;0.03;0.03;;;;;;;;;;4965805;28;20042;-86
2021/09/22 14:43:39;;;;;;;1.30;0.45;;;;;;;;;;4946084;28;20061;-85
2021/09/22 14:46:05;;;;;;;0.45;0.40;;;;;;;;;;4963576;28;20029;-85
2021/09/22 14:48:31;;;;;;;0.30;0.30;;;;;;;;;;4963605;28;20062;-86
2021/09/22 14:50:58;;;;;;;0.05;0.05;;;;;;;;;;4945382;28;20086;-85
2021/09/22 14:53:24;;;;;;;0.00;0.00;;;;;;;;;;4947477;28;20035;-86